createdAt,value
2019-04-06T00:01:20.465Z,17.67
2019-04-06T00:03:47.480Z,17.43
2019-04-06T00:06:14.370Z,13.47
2019-04-06T00:08:41.294Z,12.40
2019-04-06T00:11:08.244Z,14.07
2019-04-06T00:13:35.164Z,18.17
2019-04-06T00:16:02.116Z,13.03
2019-04-06T00:18:29.048Z,13.17
2019-04-06T00:20:55.979Z,13.83
2019-04-06T00:23:22.907Z,14.80
2019-04-06T00:25:49.876Z,13.17
2019-04-06T00:28:16.788Z,13.67
2019-04-06T00:30:55.025Z,15.17
2019-04-06T00:33:22.114Z,13.73
2019-04-06T00:35:49.051Z,14.87
2019-04-06T00:38:16.076Z,15.33
2019-04-06T00:40:42.929Z,14.50
2019-04-06T00:43:09.872Z,14.37
2019-04-06T00:45:36.828Z,14.10
2019-04-06T00:48:03.761Z,14.50
2019-04-06T00:50:30.748Z,14.33
2019-04-06T00:52:57.730Z,15.97
2019-04-06T00:55:24.679Z,17.20
2019-04-06T00:57:51.620Z,16.47
2019-04-06T01:00:20.105Z,15.30
2019-04-06T01:02:47.053Z,15.53
2019-04-06T01:05:13.968Z,14.20
2019-04-06T01:07:40.970Z,15.07
2019-04-06T01:10:07.848Z,15.50
2019-04-06T01:12:34.792Z,15.37
2019-04-06T01:15:01.748Z,13.33
2019-04-06T01:17:28.697Z,15.10
2019-04-06T01:19:55.650Z,15.07
2019-04-06T01:22:22.609Z,18.17
2019-04-06T01:24:49.554Z,15.30
2019-04-06T01:27:16.477Z,16.17
2019-04-06T01:29:43.443Z,15.90
2019-04-06T01:32:10.366Z,15.83
2019-04-06T01:34:37.357Z,15.93
2019-04-06T01:37:04.289Z,17.90
2019-04-06T01:39:31.203Z,15.57
2019-04-06T01:41:58.124Z,15.80
2019-04-06T01:44:25.101Z,16.87
2019-04-06T01:46:52.089Z,15.57
2019-04-06T01:49:18.985Z,16.40
2019-04-06T01:51:45.959Z,16.87
2019-04-06T01:54:12.881Z,17.37
2019-04-06T01:56:39.831Z,18.43
2019-04-06T01:59:06.801Z,18.10
2019-04-06T02:01:40.381Z,17.17
2019-04-06T02:04:07.320Z,17.17
2019-04-06T02:06:34.287Z,18.50
2019-04-06T02:09:01.229Z,18.40
2019-04-06T02:11:28.162Z,19.83
2019-04-06T02:13:55.117Z,18.30
2019-04-06T02:16:22.046Z,19.20
2019-04-06T02:18:48.982Z,20.07
2019-04-06T02:21:15.953Z,18.13
2019-04-06T02:23:42.863Z,18.30
2019-04-06T02:26:09.783Z,17.33
2019-04-06T02:28:36.733Z,18.83
2019-04-06T02:31:09.458Z,21.50
2019-04-06T02:33:56.803Z,19.27
2019-04-06T02:36:42.625Z,17.47
2019-04-06T02:39:17.547Z,18.93
2019-04-06T02:41:47.591Z,18.00
2019-04-06T02:44:14.432Z,18.73
2019-04-06T02:46:41.377Z,19.97
2019-04-06T02:49:08.320Z,18.83
2019-04-06T02:51:35.274Z,20.07
2019-04-06T02:54:02.225Z,19.03
2019-04-06T02:56:44.256Z,19.13
2019-04-06T02:58:56.130Z,18.20
2019-04-06T03:01:23.101Z,23.57
2019-04-06T03:03:51.366Z,18.77
2019-04-06T03:06:18.331Z,22.93
2019-04-06T03:08:45.291Z,17.83
2019-04-06T03:11:12.224Z,19.03
2019-04-06T03:13:39.179Z,19.63
2019-04-06T03:16:06.110Z,18.43
2019-04-06T03:18:33.051Z,19.33
2019-04-06T03:20:59.998Z,19.30
2019-04-06T03:23:27.105Z,18.70
2019-04-06T03:25:53.869Z,19.93
2019-04-06T03:28:20.793Z,22.23
2019-04-06T03:30:47.724Z,21.73
2019-04-06T03:33:14.754Z,19.00
2019-04-06T03:35:47.305Z,19.27
2019-04-06T03:38:08.614Z,20.53
2019-04-06T03:40:35.549Z,21.10
2019-04-06T03:43:02.511Z,21.33
2019-04-06T03:45:29.458Z,21.50
2019-04-06T03:47:56.404Z,19.43
2019-04-06T03:50:23.341Z,20.47
2019-04-06T03:52:50.375Z,23.27
2019-04-06T03:55:17.273Z,21.67
2019-04-06T03:57:44.215Z,20.97
2019-04-06T04:00:11.168Z,19.07
2019-04-06T04:02:38.101Z,19.37
2019-04-06T04:05:05.529Z,19.20
2019-04-06T04:07:32.489Z,18.13
2019-04-06T04:09:59.437Z,20.57
2019-04-06T04:12:26.393Z,18.50
2019-04-06T04:14:53.388Z,17.00
2019-04-06T04:17:20.509Z,16.03
2019-04-06T04:19:47.575Z,19.00
2019-04-06T04:22:14.280Z,20.33
2019-04-06T04:24:41.202Z,16.97
2019-04-06T04:27:08.356Z,16.97
2019-04-06T04:29:35.080Z,18.70
2019-04-06T04:32:02.059Z,18.80
2019-04-06T04:34:28.973Z,18.97
2019-04-06T04:36:55.969Z,18.17
2019-04-06T04:39:22.914Z,20.73
2019-04-06T04:41:49.842Z,20.23
2019-04-06T04:44:16.812Z,18.40
2019-04-06T04:46:43.873Z,21.53
2019-04-06T04:49:10.701Z,18.40
2019-04-06T04:51:37.739Z,17.87
2019-04-06T04:54:04.595Z,19.27
2019-04-06T04:56:31.533Z,18.83
2019-04-06T04:58:58.655Z,21.00
2019-04-06T05:01:25.431Z,19.13
2019-04-06T05:03:52.358Z,20.13
2019-04-06T05:06:20.511Z,21.37
2019-04-06T05:08:47.458Z,24.43
2019-04-06T05:11:14.393Z,23.47
2019-04-06T05:13:41.353Z,20.33
2019-04-06T05:16:09.319Z,21.47
2019-04-06T05:18:36.273Z,21.03
2019-04-06T05:21:03.226Z,20.87
2019-04-06T05:23:30.148Z,24.30
2019-04-06T05:25:57.083Z,21.70
2019-04-06T05:28:24.049Z,21.53
2019-04-06T05:30:50.980Z,20.93
2019-04-06T05:33:17.914Z,22.33
2019-04-06T05:35:44.858Z,25.60
2019-04-06T05:38:12.404Z,21.33
2019-04-06T05:40:39.380Z,22.63
2019-04-06T05:43:06.337Z,20.33
2019-04-06T05:45:33.297Z,20.27
2019-04-06T05:48:00.203Z,22.87
2019-04-06T05:50:27.174Z,21.13
2019-04-06T05:52:54.111Z,26.63
2019-04-06T05:55:21.050Z,25.33
2019-04-06T05:57:48.018Z,36.20
2019-04-06T06:00:14.974Z,25.03
2019-04-06T06:02:41.975Z,25.70
2019-04-06T06:05:10.512Z,22.60
2019-04-06T06:07:37.141Z,21.97
2019-04-06T06:10:04.123Z,22.67
2019-04-06T06:12:31.180Z,19.63
2019-04-06T06:14:58.018Z,20.23
2019-04-06T06:17:24.961Z,22.07
2019-04-06T06:19:51.934Z,21.90
2019-04-06T06:22:19.118Z,24.13
2019-04-06T06:24:46.026Z,23.73
2019-04-06T06:27:12.780Z,21.20
2019-04-06T06:29:39.709Z,22.97
2019-04-06T06:32:06.670Z,24.97
2019-04-06T06:34:33.860Z,20.27
2019-04-06T06:37:00.593Z,23.83
2019-04-06T06:39:27.533Z,23.80
2019-04-06T06:41:54.494Z,28.17
2019-04-06T06:44:21.420Z,23.10
2019-04-06T06:46:48.350Z,22.80
2019-04-06T06:49:15.475Z,24.53
2019-04-06T06:51:42.274Z,24.20
2019-04-06T06:54:09.213Z,25.03
2019-04-06T06:56:36.217Z,22.33
2019-04-06T06:59:03.135Z,26.03
2019-04-06T07:01:30.084Z,26.90
2019-04-06T07:03:57.028Z,23.90
2019-04-06T07:06:23.979Z,25.70
2019-04-06T07:08:52.405Z,24.77
2019-04-06T07:11:19.146Z,24.03
2019-04-06T07:13:46.064Z,22.27
2019-04-06T07:16:13.045Z,23.13
2019-04-06T07:18:39.990Z,23.77
2019-04-06T07:21:06.962Z,25.93
2019-04-06T07:23:34.003Z,26.23
2019-04-06T07:26:00.878Z,27.30
2019-04-06T07:28:37.147Z,23.40
2019-04-06T07:30:54.873Z,23.93
2019-04-06T07:33:21.832Z,26.23
2019-04-06T07:35:48.744Z,23.40
2019-04-06T07:38:15.686Z,24.93
2019-04-06T07:40:42.645Z,23.53
2019-04-06T07:43:09.607Z,24.60
2019-04-06T07:45:36.562Z,25.47
2019-04-06T07:48:03.676Z,23.33
2019-04-06T07:50:30.626Z,24.13
2019-04-06T07:52:57.580Z,24.53
2019-04-06T07:55:24.528Z,24.60
2019-04-06T07:57:51.480Z,27.10
2019-04-06T08:00:18.566Z,30.33
2019-04-06T08:02:45.648Z,25.07
2019-04-06T08:05:12.596Z,22.53
2019-04-06T08:07:39.522Z,26.93
2019-04-06T08:10:06.907Z,24.50
2019-04-06T08:12:33.886Z,27.53
2019-04-06T08:15:01.035Z,23.43
2019-04-06T08:17:27.936Z,25.77
2019-04-06T08:19:54.962Z,25.63
2019-04-06T08:22:22.020Z,28.77
2019-04-06T08:24:49.276Z,32.63
2019-04-06T08:27:16.029Z,26.53
2019-04-06T08:29:42.944Z,29.10
2019-04-06T08:32:10.056Z,32.47
2019-04-06T08:34:37.008Z,30.67
2019-04-06T08:37:03.861Z,31.50
2019-04-06T08:39:30.837Z,31.07
2019-04-06T08:41:57.785Z,30.43
2019-04-06T08:44:24.741Z,30.53
2019-04-06T08:46:51.689Z,30.33
2019-04-06T08:49:18.626Z,29.10
2019-04-06T08:51:45.595Z,29.60
2019-04-06T08:54:12.558Z,31.80
2019-04-06T08:56:39.636Z,29.50
2019-04-06T08:59:12.144Z,30.20
2019-04-06T09:01:33.369Z,29.77
2019-04-06T09:04:00.308Z,32.80
2019-04-06T09:06:27.455Z,32.43
2019-04-06T09:08:54.356Z,29.30
2019-04-06T09:11:21.525Z,29.13
2019-04-06T09:14:01.409Z,29.63
2019-04-06T09:16:28.341Z,30.97
2019-04-06T09:18:55.264Z,34.37
2019-04-06T09:21:22.981Z,31.47
2019-04-06T09:23:49.843Z,28.67
2019-04-06T09:26:16.849Z,29.07
2019-04-06T09:28:43.857Z,30.47
2019-04-06T09:31:10.821Z,37.00
2019-04-06T09:33:37.739Z,33.97
2019-04-06T09:36:04.723Z,32.50
2019-04-06T09:38:31.776Z,32.00
2019-04-06T09:40:58.648Z,29.37
2019-04-06T09:43:25.817Z,31.03
2019-04-06T09:46:06.742Z,29.80
2019-04-06T09:48:43.662Z,31.63
2019-04-06T09:51:30.216Z,30.30
2019-04-06T09:54:06.184Z,28.63
2019-04-06T09:56:41.815Z,28.60
2019-04-06T09:59:14.597Z,28.63
2019-04-06T10:02:00.174Z,29.33
2019-04-06T10:04:40.060Z,27.07
2019-04-06T10:07:12.697Z,30.03
2019-04-06T10:09:45.306Z,29.30
2019-04-06T10:12:27.265Z,28.77
2019-04-06T10:15:04.618Z,29.37
2019-04-06T10:17:51.171Z,27.93
2019-04-06T10:20:42.615Z,27.73
2019-04-06T10:23:15.265Z,25.63
2019-04-06T10:25:50.511Z,25.63
2019-04-06T10:28:23.396Z,25.67
2019-04-06T10:30:55.854Z,24.40
2019-04-06T10:33:42.426Z,23.67
2019-04-06T10:36:20.853Z,25.53
2019-04-06T10:38:58.746Z,19.70
2019-04-06T10:41:45.551Z,18.73
2019-04-06T10:44:36.077Z,20.27
2019-04-06T10:47:08.997Z,17.00
2019-04-06T10:49:45.312Z,16.63
2019-04-06T10:52:24.145Z,16.27
2019-04-06T10:54:57.106Z,16.50
2019-04-06T10:57:46.674Z,15.70
2019-04-06T11:00:34.167Z,18.43
2019-04-06T11:03:10.845Z,17.00
2019-04-06T11:05:46.571Z,16.30
2019-04-06T11:08:33.852Z,15.53
2019-04-06T11:11:08.829Z,16.20
2019-04-06T11:13:45.716Z,15.90
2019-04-06T11:16:18.391Z,16.07
2019-04-06T11:19:04.962Z,15.07
2019-04-06T11:21:42.442Z,15.07
2019-04-06T11:24:21.486Z,14.80
2019-04-06T11:26:56.881Z,15.17
2019-04-06T11:29:37.761Z,15.37
2019-04-06T11:32:15.743Z,14.93
2019-04-06T11:34:48.540Z,13.90
2019-04-06T11:37:25.618Z,14.37
2019-04-06T11:40:10.116Z,13.83
2019-04-06T11:42:50.055Z,14.97
2019-04-06T11:45:22.952Z,16.10
2019-04-06T11:48:11.502Z,14.33
2019-04-06T11:50:46.111Z,14.80
2019-04-06T11:53:20.716Z,14.87
2019-04-06T11:56:03.120Z,14.10
2019-04-06T11:58:43.588Z,14.30
2019-04-06T12:01:23.924Z,13.87
2019-04-06T12:03:58.476Z,14.10
2019-04-06T12:06:32.802Z,12.87
2019-04-06T12:09:12.873Z,12.57
2019-04-06T12:11:49.764Z,12.03
2019-04-06T12:14:29.171Z,10.77
2019-04-06T12:17:04.429Z,11.10
2019-04-06T12:19:43.036Z,10.47
2019-04-06T12:22:20.339Z,12.13
2019-04-06T12:25:00.484Z,12.80
2019-04-06T12:27:47.983Z,11.37
2019-04-06T12:30:38.464Z,9.73
2019-04-06T12:33:13.034Z,9.70
2019-04-06T12:36:02.008Z,10.03
2019-04-06T12:38:50.351Z,9.83
2019-04-06T12:41:26.231Z,10.53
2019-04-06T12:44:05.778Z,9.60
2019-04-06T12:46:44.178Z,8.80
2019-04-06T12:49:31.457Z,12.47
2019-04-06T12:52:08.366Z,9.50
2019-04-06T12:54:44.551Z,10.30
2019-04-06T12:57:22.647Z,10.37
2019-04-06T12:59:58.271Z,10.07
2019-04-06T13:02:44.460Z,10.57
2019-04-06T13:05:27.331Z,9.50
2019-04-06T13:08:17.769Z,9.80
2019-04-06T13:10:56.755Z,10.03
2019-04-06T13:13:39.234Z,11.97
2019-04-06T13:16:15.693Z,10.30
2019-04-06T13:18:54.413Z,10.63
2019-04-06T13:21:40.595Z,13.13
2019-04-06T13:24:15.575Z,10.33
2019-04-06T13:26:50.036Z,10.43
2019-04-06T13:29:23.349Z,10.27
2019-04-06T13:32:09.011Z,9.57
2019-04-06T13:35:00.488Z,9.87
2019-04-06T13:37:33.283Z,8.77
2019-04-06T13:40:06.060Z,9.33
2019-04-06T13:42:42.917Z,9.40
2019-04-06T13:45:18.715Z,8.87
2019-04-06T13:47:52.367Z,8.73
2019-04-06T13:50:29.581Z,9.40
2019-04-06T13:53:03.826Z,9.30
2019-04-06T13:55:41.163Z,9.60
2019-04-06T13:58:13.113Z,9.07
2019-04-06T14:00:52.020Z,8.93
2019-04-06T14:03:30.319Z,9.10
2019-04-06T14:06:03.009Z,8.63
2019-04-06T14:08:52.360Z,9.47
2019-04-06T14:11:29.672Z,9.17
2019-04-06T14:14:02.227Z,8.73
2019-04-06T14:16:51.016Z,8.40
2019-04-06T14:19:43.446Z,8.30
2019-04-06T14:22:26.821Z,8.70
2019-04-06T14:25:04.776Z,8.47
2019-04-06T14:27:44.590Z,8.77
2019-04-06T14:30:33.848Z,8.57
2019-04-06T14:33:24.429Z,8.63
2019-04-06T14:36:09.398Z,9.30
2019-04-06T14:38:52.224Z,9.50
2019-04-06T14:41:35.557Z,9.07
2019-04-06T14:44:17.031Z,9.30
2019-04-06T14:46:54.230Z,8.93
2019-04-06T14:49:30.782Z,8.13
2019-04-06T14:52:16.496Z,8.77
2019-04-06T14:54:51.231Z,8.50
2019-04-06T14:57:37.801Z,9.53
2019-04-06T15:00:14.694Z,8.60
2019-04-06T15:02:51.735Z,8.80
2019-04-06T15:05:24.341Z,8.77
2019-04-06T15:08:04.653Z,8.23
2019-04-06T15:10:54.206Z,8.23
2019-04-06T15:13:40.795Z,8.23
2019-04-06T15:16:28.046Z,8.13
2019-04-06T15:19:02.579Z,9.40
2019-04-06T15:21:37.589Z,8.13
2019-04-06T15:24:15.387Z,8.60
2019-04-06T15:26:50.972Z,9.77
2019-04-06T15:29:31.024Z,8.50
2019-04-06T15:32:08.087Z,8.57
2019-04-06T15:34:45.129Z,7.57
2019-04-06T15:37:17.956Z,8.40
2019-04-06T15:39:50.688Z,7.90
2019-04-06T15:42:41.047Z,7.90
2019-04-06T15:45:14.101Z,7.63
2019-04-06T15:47:53.515Z,8.70
2019-04-06T15:50:43.426Z,8.90
2019-04-06T15:53:29.543Z,8.20
2019-04-06T15:56:02.560Z,8.63
2019-04-06T15:58:35.836Z,8.10
2019-04-06T16:01:27.406Z,8.10
2019-04-06T16:04:02.748Z,7.50
2019-04-06T16:06:35.312Z,8.50
2019-04-06T16:09:07.875Z,8.20
2019-04-06T16:11:40.719Z,8.07
2019-04-06T16:14:17.115Z,7.43
2019-04-06T16:16:54.534Z,8.30
2019-04-06T16:19:31.001Z,9.30
2019-04-06T16:22:19.691Z,7.87
2019-04-06T16:24:52.404Z,8.30
2019-04-06T16:27:38.844Z,8.90
2019-04-06T16:30:25.786Z,7.40
2019-04-06T16:33:04.702Z,11.70
2019-04-06T16:35:43.103Z,7.80
2019-04-06T16:38:19.075Z,7.27
2019-04-06T16:40:56.360Z,8.10
2019-04-06T16:43:32.370Z,6.97
2019-04-06T16:46:23.087Z,9.30
2019-04-06T16:48:59.556Z,7.50
2019-04-06T16:51:47.000Z,8.83
2019-04-06T16:54:24.543Z,7.80
2019-04-06T16:56:58.108Z,6.97
2019-04-06T16:59:35.017Z,7.13
2019-04-06T17:02:27.086Z,11.37
2019-04-06T17:05:04.902Z,7.20
2019-04-06T17:07:40.653Z,12.53
2019-04-06T17:10:15.936Z,16.80
2019-04-06T17:12:50.651Z,25.90
2019-04-06T17:15:25.296Z,8.50
2019-04-06T17:18:04.730Z,11.40
2019-04-06T17:20:40.497Z,7.20
2019-04-06T17:23:15.459Z,6.13
2019-04-06T17:25:49.131Z,8.93
2019-04-06T17:28:26.712Z,7.80
2019-04-06T17:31:02.443Z,6.60
2019-04-06T17:33:35.976Z,7.30
2019-04-06T17:36:13.183Z,6.40
2019-04-06T17:38:47.012Z,6.47
2019-04-06T17:41:21.004Z,5.90
2019-04-06T17:44:02.672Z,6.47
2019-04-06T17:46:35.668Z,7.57
2019-04-06T17:49:08.311Z,6.83
2019-04-06T17:51:42.019Z,6.70
2019-04-06T17:54:14.570Z,7.97
2019-04-06T17:56:52.522Z,6.67
2019-04-06T17:59:30.115Z,6.90
2019-04-06T18:02:02.556Z,7.53
2019-04-06T18:04:41.438Z,7.80
2019-04-06T18:07:16.895Z,7.63
2019-04-06T18:09:54.888Z,6.93
2019-04-06T18:12:46.312Z,7.83
2019-04-06T18:15:13.230Z,8.60
2019-04-06T18:17:40.498Z,16.10
2019-04-06T18:20:07.304Z,11.47
2019-04-06T18:22:35.459Z,9.20
2019-04-06T18:25:02.369Z,10.20
2019-04-06T18:27:29.308Z,8.50
2019-04-06T18:29:56.686Z,8.40
2019-04-06T18:32:35.963Z,8.87
2019-04-06T18:35:02.851Z,8.97
2019-04-06T18:37:44.664Z,9.37
2019-04-06T18:40:28.717Z,8.73
2019-04-06T18:42:56.199Z,8.37
2019-04-06T18:45:23.146Z,8.97
2019-04-06T18:47:49.577Z,9.37
2019-04-06T18:50:16.516Z,9.20
2019-04-06T18:52:43.466Z,12.37
2019-04-06T18:55:11.300Z,10.00
2019-04-06T18:57:37.324Z,9.20
2019-04-06T19:00:07.419Z,9.03
2019-04-06T19:02:34.270Z,9.60
2019-04-06T19:05:01.220Z,12.63
2019-04-06T19:07:28.144Z,10.97
2019-04-06T19:09:55.105Z,11.13
2019-04-06T19:12:22.058Z,11.23
2019-04-06T19:14:48.991Z,12.50
2019-04-06T19:17:16.722Z,20.93
2019-04-06T19:19:43.279Z,21.60
2019-04-06T19:22:09.781Z,20.43
2019-04-06T19:24:37.118Z,25.00
2019-04-06T19:27:04.436Z,37.87
2019-04-06T19:29:30.980Z,19.47
2019-04-06T19:31:58.831Z,13.90
2019-04-06T19:34:25.009Z,12.33
2019-04-06T19:36:52.180Z,18.27
2019-04-06T19:39:18.780Z,20.20
2019-04-06T19:41:46.101Z,18.07
2019-04-06T19:44:13.267Z,16.10
2019-04-06T19:46:39.679Z,16.40
2019-04-06T19:49:06.539Z,16.40
2019-04-06T19:51:33.413Z,18.13
2019-04-06T19:54:00.418Z,18.27
2019-04-06T19:56:27.669Z,19.67
2019-04-06T19:58:54.744Z,16.10
2019-04-06T20:01:21.196Z,19.77
2019-04-06T20:03:48.152Z,12.73
2019-04-06T20:06:15.519Z,13.97
2019-04-06T20:08:41.996Z,12.90
2019-04-06T20:11:08.954Z,12.43
2019-04-06T20:13:35.856Z,11.60
2019-04-06T20:16:03.050Z,11.43
2019-04-06T20:18:29.728Z,11.90
2019-04-06T20:20:56.812Z,12.50
2019-04-06T20:23:24.307Z,12.07
2019-04-06T20:25:51.008Z,15.50
2019-04-06T20:28:17.952Z,12.93
2019-04-06T20:30:44.867Z,11.57
2019-04-06T20:33:11.990Z,12.60
2019-04-06T20:35:38.707Z,11.17
2019-04-06T20:38:06.100Z,11.10
2019-04-06T20:40:32.617Z,12.00
2019-04-06T20:42:59.568Z,11.13
2019-04-06T20:45:26.821Z,12.50
2019-04-06T20:47:53.946Z,11.10
2019-04-06T20:50:20.426Z,11.30
2019-04-06T20:52:47.347Z,12.77
2019-04-06T20:55:14.375Z,10.80
2019-04-06T20:57:41.211Z,10.70
2019-04-06T21:00:08.148Z,11.17
2019-04-06T21:02:35.096Z,10.87
2019-04-06T21:05:02.199Z,12.33
2019-04-06T21:07:28.953Z,11.67
2019-04-06T21:09:56.125Z,14.27
2019-04-06T21:12:22.822Z,12.93
2019-04-06T21:14:49.741Z,11.67
2019-04-06T21:17:17.399Z,11.63
2019-04-06T21:19:44.242Z,11.93
2019-04-06T21:22:10.723Z,11.27
2019-04-06T21:24:37.829Z,11.97
2019-04-06T21:27:04.880Z,17.37
2019-04-06T21:29:32.290Z,13.10
2019-04-06T21:31:58.558Z,12.37
2019-04-06T21:34:26.038Z,12.23
2019-04-06T21:36:52.777Z,14.50
2019-04-06T21:39:19.409Z,13.53
2019-04-06T21:41:46.328Z,11.43
2019-04-06T21:44:13.244Z,13.10
2019-04-06T21:46:40.431Z,12.40
2019-04-06T21:49:07.701Z,14.47
2019-04-06T21:51:34.282Z,13.63
2019-04-06T21:54:01.363Z,12.60
2019-04-06T21:56:28.096Z,13.40
2019-04-06T21:58:55.108Z,16.17
2019-04-06T22:01:22.052Z,12.13
2019-04-06T22:03:49.582Z,44.43
2019-04-06T22:06:15.892Z,39.97
2019-04-06T22:08:42.830Z,19.77
2019-04-06T22:11:09.755Z,13.77
2019-04-06T22:13:36.829Z,12.73
2019-04-06T22:16:03.865Z,12.53
2019-04-06T22:18:30.788Z,12.17
2019-04-06T22:20:57.805Z,12.43
2019-04-06T22:23:25.216Z,11.90
2019-04-06T22:25:51.607Z,13.20
2019-04-06T22:28:19.227Z,13.27
2019-04-06T22:30:45.950Z,16.70
2019-04-06T22:33:12.962Z,13.67
2019-04-06T22:35:39.488Z,12.97
2019-04-06T22:38:06.833Z,15.53
2019-04-06T22:40:33.511Z,16.87
2019-04-06T22:43:01.255Z,14.23
2019-04-06T22:45:27.631Z,13.07
2019-04-06T22:47:54.255Z,13.13
2019-04-06T22:50:21.159Z,13.37
2019-04-06T22:52:48.163Z,13.23
2019-04-06T22:55:15.447Z,12.57
2019-04-06T22:57:42.146Z,14.73
2019-04-06T23:00:08.984Z,14.30
2019-04-06T23:02:53.729Z,13.60
2019-04-06T23:05:26.857Z,14.10
2019-04-06T23:07:53.497Z,12.93
2019-04-06T23:10:20.339Z,15.70
2019-04-06T23:12:47.472Z,15.63
2019-04-06T23:15:14.223Z,16.40
2019-04-06T23:17:41.162Z,13.60
2019-04-06T23:20:08.360Z,13.50
2019-04-06T23:22:35.495Z,15.40
2019-04-06T23:25:02.019Z,13.77
2019-04-06T23:27:29.583Z,14.33
2019-04-06T23:29:56.372Z,13.90
2019-04-06T23:32:23.881Z,13.20
2019-04-06T23:34:58.772Z,14.60
2019-04-06T23:37:17.179Z,18.57
2019-04-06T23:39:44.394Z,12.87
2019-04-06T23:42:11.157Z,13.37
2019-04-06T23:44:37.973Z,12.33
2019-04-06T23:47:04.896Z,12.47
2019-04-06T23:49:31.816Z,12.73
2019-04-06T23:51:58.792Z,14.13
2019-04-06T23:54:26.332Z,13.53
2019-04-06T23:56:53.036Z,14.00
2019-04-06T23:59:19.988Z,13.17
